sensor_id;sensor_type;location;lat;lon;timestamp;P1;durP1;ratioP1;P2;durP2;ratioP2
46675;SDS011;32412;51.478;5.694;2023-12-28T00:01:39;3.03;;;1.60;;
46675;SDS011;32412;51.478;5.694;2023-12-28T00:04:05;2.17;;;1.60;;
46675;SDS011;32412;51.478;5.694;2023-12-28T00:06:31;3.25;;;1.67;;
46675;SDS011;32412;51.478;5.694;2023-12-28T00:08:56;6.45;;;1.92;;
46675;SDS011;32412;51.478;5.694;2023-12-28T00:11:22;1.80;;;1.67;;
46675;SDS011;32412;51.478;5.694;2023-12-28T00:13:48;3.30;;;1.48;;
46675;SDS011;32412;51.478;5.694;2023-12-28T00:16:14;3.33;;;1.83;;
46675;SDS011;32412;51.478;5.694;2023-12-28T00:18:39;3.20;;;1.75;;
46675;SDS011;32412;51.478;5.694;2023-12-28T00:21:05;5.95;;;1.88;;
46675;SDS011;32412;51.478;5.694;2023-12-28T00:23:31;4.63;;;1.70;;
46675;SDS011;32412;51.478;5.694;2023-12-28T00:25:56;1.67;;;1.58;;
46675;SDS011;32412;51.478;5.694;2023-12-28T00:28:22;2.38;;;1.60;;
46675;SDS011;32412;51.478;5.694;2023-12-28T00:30:47;2.70;;;1.83;;
46675;SDS011;32412;51.478;5.694;2023-12-28T00:33:13;2.85;;;2.03;;
46675;SDS011;32412;51.478;5.694;2023-12-28T00:35:42;5.25;;;1.88;;
46675;SDS011;32412;51.478;5.694;2023-12-28T00:38:07;3.80;;;1.95;;
46675;SDS011;32412;51.478;5.694;2023-12-28T00:40:33;3.22;;;1.80;;
46675;SDS011;32412;51.478;5.694;2023-12-28T00:42:59;2.92;;;1.70;;
46675;SDS011;32412;51.478;5.694;2023-12-28T00:45:24;2.90;;;1.90;;
46675;SDS011;32412;51.478;5.694;2023-12-28T00:47:50;3.83;;;1.70;;
46675;SDS011;32412;51.478;5.694;2023-12-28T00:50:17;3.15;;;1.80;;
46675;SDS011;32412;51.478;5.694;2023-12-28T00:52:42;2.17;;;1.83;;
46675;SDS011;32412;51.478;5.694;2023-12-28T00:55:08;3.10;;;2.22;;
46675;SDS011;32412;51.478;5.694;2023-12-28T00:57:36;2.80;;;1.73;;
46675;SDS011;32412;51.478;5.694;2023-12-28T01:00:02;2.35;;;2.10;;
46675;SDS011;32412;51.478;5.694;2023-12-28T01:02:27;2.65;;;1.92;;
46675;SDS011;32412;51.478;5.694;2023-12-28T01:04:53;2.13;;;1.67;;
46675;SDS011;32412;51.478;5.694;2023-12-28T01:07:19;4.18;;;1.73;;
46675;SDS011;32412;51.478;5.694;2023-12-28T01:09:45;4.18;;;1.90;;
46675;SDS011;32412;51.478;5.694;2023-12-28T01:12:10;4.47;;;1.73;;
46675;SDS011;32412;51.478;5.694;2023-12-28T01:14:36;3.22;;;1.75;;
46675;SDS011;32412;51.478;5.694;2023-12-28T01:17:01;1.90;;;1.70;;
46675;SDS011;32412;51.478;5.694;2023-12-28T01:19:27;3.85;;;1.83;;
46675;SDS011;32412;51.478;5.694;2023-12-28T01:21:53;3.28;;;2.00;;
46675;SDS011;32412;51.478;5.694;2023-12-28T01:24:19;3.20;;;1.85;;
46675;SDS011;32412;51.478;5.694;2023-12-28T01:26:44;3.20;;;1.60;;
46675;SDS011;32412;51.478;5.694;2023-12-28T01:29:10;2.55;;;1.40;;
46675;SDS011;32412;51.478;5.694;2023-12-28T01:31:35;5.80;;;1.90;;
46675;SDS011;32412;51.478;5.694;2023-12-28T01:34:03;3.75;;;1.75;;
46675;SDS011;32412;51.478;5.694;2023-12-28T01:36:29;2.03;;;1.83;;
46675;SDS011;32412;51.478;5.694;2023-12-28T01:38:55;3.63;;;1.80;;
46675;SDS011;32412;51.478;5.694;2023-12-28T01:41:21;4.47;;;1.60;;
46675;SDS011;32412;51.478;5.694;2023-12-28T01:43:47;4.47;;;1.98;;
46675;SDS011;32412;51.478;5.694;2023-12-28T01:46:19;2.50;;;1.80;;
46675;SDS011;32412;51.478;5.694;2023-12-28T01:48:47;4.90;;;1.85;;
46675;SDS011;32412;51.478;5.694;2023-12-28T01:51:14;3.85;;;1.95;;
46675;SDS011;32412;51.478;5.694;2023-12-28T01:53:40;3.33;;;1.77;;
46675;SDS011;32412;51.478;5.694;2023-12-28T01:56:07;4.70;;;1.95;;
46675;SDS011;32412;51.478;5.694;2023-12-28T01:58:33;3.35;;;1.80;;
46675;SDS011;32412;51.478;5.694;2023-12-28T02:01:00;2.78;;;1.65;;
46675;SDS011;32412;51.478;5.694;2023-12-28T02:03:26;5.00;;;2.15;;
46675;SDS011;32412;51.478;5.694;2023-12-28T02:05:52;2.80;;;1.60;;
46675;SDS011;32412;51.478;5.694;2023-12-28T02:08:19;3.88;;;2.00;;
46675;SDS011;32412;51.478;5.694;2023-12-28T02:10:44;3.83;;;1.80;;
46675;SDS011;32412;51.478;5.694;2023-12-28T02:13:10;5.10;;;2.03;;
46675;SDS011;32412;51.478;5.694;2023-12-28T02:15:36;5.15;;;1.95;;
46675;SDS011;32412;51.478;5.694;2023-12-28T02:18:05;4.63;;;1.65;;
46675;SDS011;32412;51.478;5.694;2023-12-28T02:20:43;2.22;;;1.60;;
46675;SDS011;32412;51.478;5.694;2023-12-28T02:23:09;4.22;;;1.85;;
46675;SDS011;32412;51.478;5.694;2023-12-28T02:25:35;3.90;;;1.90;;
46675;SDS011;32412;51.478;5.694;2023-12-28T02:31:58;7.20;;;1.80;;
46675;SDS011;32412;51.478;5.694;2023-12-28T02:34:34;4.55;;;1.85;;
46675;SDS011;32412;51.478;5.694;2023-12-28T02:37:02;2.70;;;1.73;;
46675;SDS011;32412;51.478;5.694;2023-12-28T02:39:29;3.00;;;1.90;;
46675;SDS011;32412;51.478;5.694;2023-12-28T02:41:55;2.33;;;1.70;;
46675;SDS011;32412;51.478;5.694;2023-12-28T02:44:21;4.05;;;2.00;;
46675;SDS011;32412;51.478;5.694;2023-12-28T02:46:47;3.80;;;1.83;;
46675;SDS011;32412;51.478;5.694;2023-12-28T02:49:13;7.60;;;2.25;;
46675;SDS011;32412;51.478;5.694;2023-12-28T02:51:40;3.67;;;1.90;;
46675;SDS011;32412;51.478;5.694;2023-12-28T02:54:07;4.45;;;1.80;;
46675;SDS011;32412;51.478;5.694;2023-12-28T02:56:33;6.20;;;2.33;;
46675;SDS011;32412;51.478;5.694;2023-12-28T02:58:59;3.95;;;2.10;;
46675;SDS011;32412;51.478;5.694;2023-12-28T03:01:25;6.13;;;2.08;;
46675;SDS011;32412;51.478;5.694;2023-12-28T03:03:50;4.63;;;2.05;;
46675;SDS011;32412;51.478;5.694;2023-12-28T03:06:16;3.63;;;2.20;;
46675;SDS011;32412;51.478;5.694;2023-12-28T03:08:42;3.13;;;2.03;;
46675;SDS011;32412;51.478;5.694;2023-12-28T03:11:07;3.05;;;2.00;;
46675;SDS011;32412;51.478;5.694;2023-12-28T03:13:33;5.22;;;2.20;;
46675;SDS011;32412;51.478;5.694;2023-12-28T03:15:58;3.75;;;2.13;;
46675;SDS011;32412;51.478;5.694;2023-12-28T03:18:24;4.28;;;1.88;;
46675;SDS011;32412;51.478;5.694;2023-12-28T03:20:50;8.02;;;2.22;;
46675;SDS011;32412;51.478;5.694;2023-12-28T03:23:15;3.78;;;1.77;;
46675;SDS011;32412;51.478;5.694;2023-12-28T03:25:41;5.93;;;2.47;;
46675;SDS011;32412;51.478;5.694;2023-12-28T03:28:07;3.55;;;1.90;;
46675;SDS011;32412;51.478;5.694;2023-12-28T03:30:32;3.22;;;2.40;;
46675;SDS011;32412;51.478;5.694;2023-12-28T03:32:58;3.97;;;2.15;;
46675;SDS011;32412;51.478;5.694;2023-12-28T03:35:24;4.10;;;2.17;;
46675;SDS011;32412;51.478;5.694;2023-12-28T03:37:49;3.67;;;2.25;;
46675;SDS011;32412;51.478;5.694;2023-12-28T03:40:15;3.58;;;2.20;;
46675;SDS011;32412;51.478;5.694;2023-12-28T03:42:41;7.70;;;2.47;;
46675;SDS011;32412;51.478;5.694;2023-12-28T03:45:07;5.60;;;2.00;;
46675;SDS011;32412;51.478;5.694;2023-12-28T03:47:33;5.10;;;2.80;;
46675;SDS011;32412;51.478;5.694;2023-12-28T03:49:58;5.28;;;2.30;;
46675;SDS011;32412;51.478;5.694;2023-12-28T03:52:27;5.45;;;2.38;;
46675;SDS011;32412;51.478;5.694;2023-12-28T03:54:55;6.80;;;2.10;;
46675;SDS011;32412;51.478;5.694;2023-12-28T03:57:21;4.07;;;1.88;;
46675;SDS011;32412;51.478;5.694;2023-12-28T03:59:46;5.03;;;2.20;;
46675;SDS011;32412;51.478;5.694;2023-12-28T04:02:12;2.33;;;1.80;;
46675;SDS011;32412;51.478;5.694;2023-12-28T04:04:38;3.50;;;2.20;;
46675;SDS011;32412;51.478;5.694;2023-12-28T04:07:04;4.43;;;2.03;;
46675;SDS011;32412;51.478;5.694;2023-12-28T04:09:32;5.68;;;2.03;;
46675;SDS011;32412;51.478;5.694;2023-12-28T04:11:58;5.35;;;2.08;;
46675;SDS011;32412;51.478;5.694;2023-12-28T04:14:24;8.65;;;2.22;;
46675;SDS011;32412;51.478;5.694;2023-12-28T04:16:49;4.15;;;1.85;;
46675;SDS011;32412;51.478;5.694;2023-12-28T04:19:15;7.70;;;1.90;;
46675;SDS011;32412;51.478;5.694;2023-12-28T04:21:44;7.47;;;2.10;;
46675;SDS011;32412;51.478;5.694;2023-12-28T04:24:09;3.35;;;1.55;;
46675;SDS011;32412;51.478;5.694;2023-12-28T04:26:35;2.65;;;1.85;;
46675;SDS011;32412;51.478;5.694;2023-12-28T04:29:01;5.32;;;1.77;;
46675;SDS011;32412;51.478;5.694;2023-12-28T04:31:27;3.65;;;2.03;;
46675;SDS011;32412;51.478;5.694;2023-12-28T04:33:53;3.92;;;1.80;;
46675;SDS011;32412;51.478;5.694;2023-12-28T04:36:19;3.65;;;1.75;;
46675;SDS011;32412;51.478;5.694;2023-12-28T04:38:44;10.23;;;1.88;;
46675;SDS011;32412;51.478;5.694;2023-12-28T04:41:10;6.47;;;1.67;;
46675;SDS011;32412;51.478;5.694;2023-12-28T04:43:36;3.97;;;2.25;;
46675;SDS011;32412;51.478;5.694;2023-12-28T04:46:05;3.92;;;1.80;;
46675;SDS011;32412;51.478;5.694;2023-12-28T04:48:31;6.03;;;1.88;;
46675;SDS011;32412;51.478;5.694;2023-12-28T04:50:57;6.30;;;1.85;;
46675;SDS011;32412;51.478;5.694;2023-12-28T04:53:23;5.72;;;1.70;;
46675;SDS011;32412;51.478;5.694;2023-12-28T04:55:48;8.63;;;2.10;;
46675;SDS011;32412;51.478;5.694;2023-12-28T04:58:14;2.72;;;1.75;;
46675;SDS011;32412;51.478;5.694;2023-12-28T05:00:40;9.52;;;2.42;;
46675;SDS011;32412;51.478;5.694;2023-12-28T05:03:05;8.95;;;2.13;;
46675;SDS011;32412;51.478;5.694;2023-12-28T05:05:31;4.18;;;1.80;;
46675;SDS011;32412;51.478;5.694;2023-12-28T05:07:57;6.72;;;2.00;;
46675;SDS011;32412;51.478;5.694;2023-12-28T05:10:23;6.15;;;1.80;;
46675;SDS011;32412;51.478;5.694;2023-12-28T05:12:49;5.85;;;1.73;;
46675;SDS011;32412;51.478;5.694;2023-12-28T05:15:14;7.05;;;1.52;;
46675;SDS011;32412;51.478;5.694;2023-12-28T05:17:40;7.75;;;2.00;;
46675;SDS011;32412;51.478;5.694;2023-12-28T05:20:06;5.82;;;1.58;;
46675;SDS011;32412;51.478;5.694;2023-12-28T05:22:32;8.85;;;1.75;;
46675;SDS011;32412;51.478;5.694;2023-12-28T05:24:58;6.90;;;1.73;;
46675;SDS011;32412;51.478;5.694;2023-12-28T05:27:24;6.78;;;1.92;;
46675;SDS011;32412;51.478;5.694;2023-12-28T05:29:50;5.43;;;1.25;;
46675;SDS011;32412;51.478;5.694;2023-12-28T05:32:15;9.77;;;1.52;;
46675;SDS011;32412;51.478;5.694;2023-12-28T05:34:41;11.15;;;1.48;;
46675;SDS011;32412;51.478;5.694;2023-12-28T05:37:07;6.18;;;1.65;;
46675;SDS011;32412;51.478;5.694;2023-12-28T05:39:32;5.15;;;1.60;;
46675;SDS011;32412;51.478;5.694;2023-12-28T05:41:58;9.23;;;1.85;;
46675;SDS011;32412;51.478;5.694;2023-12-28T05:44:24;9.40;;;1.50;;
46675;SDS011;32412;51.478;5.694;2023-12-28T05:46:49;6.72;;;1.55;;
46675;SDS011;32412;51.478;5.694;2023-12-28T05:49:15;9.05;;;1.67;;
46675;SDS011;32412;51.478;5.694;2023-12-28T05:51:41;12.02;;;1.63;;
46675;SDS011;32412;51.478;5.694;2023-12-28T05:54:07;8.35;;;1.70;;
46675;SDS011;32412;51.478;5.694;2023-12-28T05:56:33;6.78;;;1.63;;
46675;SDS011;32412;51.478;5.694;2023-12-28T05:58:59;7.53;;;1.58;;
46675;SDS011;32412;51.478;5.694;2023-12-28T06:01:25;10.23;;;2.08;;
46675;SDS011;32412;51.478;5.694;2023-12-28T06:03:51;5.40;;;1.70;;
46675;SDS011;32412;51.478;5.694;2023-12-28T06:06:17;8.93;;;1.80;;
46675;SDS011;32412;51.478;5.694;2023-12-28T06:08:44;5.65;;;1.80;;
46675;SDS011;32412;51.478;5.694;2023-12-28T06:11:09;12.23;;;2.17;;
46675;SDS011;32412;51.478;5.694;2023-12-28T06:13:35;7.65;;;1.60;;
46675;SDS011;32412;51.478;5.694;2023-12-28T06:16:01;11.32;;;1.80;;
46675;SDS011;32412;51.478;5.694;2023-12-28T06:18:26;8.43;;;1.50;;
46675;SDS011;32412;51.478;5.694;2023-12-28T06:20:52;8.95;;;1.83;;
46675;SDS011;32412;51.478;5.694;2023-12-28T06:23:18;9.18;;;1.40;;
46675;SDS011;32412;51.478;5.694;2023-12-28T06:25:43;18.38;;;1.88;;
46675;SDS011;32412;51.478;5.694;2023-12-28T06:28:09;5.32;;;1.52;;
46675;SDS011;32412;51.478;5.694;2023-12-28T06:30:35;11.63;;;1.70;;
46675;SDS011;32412;51.478;5.694;2023-12-28T06:33:01;8.90;;;1.52;;
46675;SDS011;32412;51.478;5.694;2023-12-28T06:35:26;10.65;;;1.60;;
46675;SDS011;32412;51.478;5.694;2023-12-28T06:37:52;16.88;;;2.42;;
46675;SDS011;32412;51.478;5.694;2023-12-28T06:40:17;8.85;;;2.22;;
46675;SDS011;32412;51.478;5.694;2023-12-28T06:42:43;7.57;;;1.60;;
46675;SDS011;32412;51.478;5.694;2023-12-28T06:45:09;10.07;;;1.52;;
46675;SDS011;32412;51.478;5.694;2023-12-28T06:47:35;12.88;;;2.47;;
46675;SDS011;32412;51.478;5.694;2023-12-28T06:50:01;12.43;;;1.73;;
46675;SDS011;32412;51.478;5.694;2023-12-28T06:52:27;14.88;;;1.85;;
46675;SDS011;32412;51.478;5.694;2023-12-28T06:54:53;14.63;;;1.90;;
46675;SDS011;32412;51.478;5.694;2023-12-28T06:57:19;13.65;;;1.88;;
46675;SDS011;32412;51.478;5.694;2023-12-28T06:59:45;8.15;;;1.70;;
46675;SDS011;32412;51.478;5.694;2023-12-28T07:02:10;14.60;;;2.00;;
46675;SDS011;32412;51.478;5.694;2023-12-28T07:04:36;13.63;;;2.03;;
46675;SDS011;32412;51.478;5.694;2023-12-28T07:07:03;7.82;;;1.48;;
46675;SDS011;32412;51.478;5.694;2023-12-28T07:09:28;10.95;;;2.15;;
46675;SDS011;32412;51.478;5.694;2023-12-28T07:11:54;14.32;;;2.28;;
46675;SDS011;32412;51.478;5.694;2023-12-28T07:14:20;10.10;;;1.77;;
46675;SDS011;32412;51.478;5.694;2023-12-28T07:16:45;10.13;;;1.90;;
46675;SDS011;32412;51.478;5.694;2023-12-28T07:19:14;13.82;;;1.95;;
46675;SDS011;32412;51.478;5.694;2023-12-28T07:21:40;13.70;;;2.20;;
46675;SDS011;32412;51.478;5.694;2023-12-28T07:24:06;12.48;;;2.00;;
46675;SDS011;32412;51.478;5.694;2023-12-28T07:26:32;15.73;;;2.20;;
46675;SDS011;32412;51.478;5.694;2023-12-28T07:28:58;7.97;;;1.73;;
46675;SDS011;32412;51.478;5.694;2023-12-28T07:31:24;10.55;;;1.73;;
46675;SDS011;32412;51.478;5.694;2023-12-28T07:37:12;15.88;;;2.58;;
46675;SDS011;32412;51.478;5.694;2023-12-28T07:39:38;11.00;;;1.67;;
46675;SDS011;32412;51.478;5.694;2023-12-28T07:42:03;9.27;;;1.75;;
46675;SDS011;32412;51.478;5.694;2023-12-28T07:44:29;7.45;;;1.50;;
46675;SDS011;32412;51.478;5.694;2023-12-28T07:46:55;13.52;;;1.85;;
46675;SDS011;32412;51.478;5.694;2023-12-28T07:49:21;12.43;;;2.08;;
46675;SDS011;32412;51.478;5.694;2023-12-28T07:51:47;15.25;;;2.53;;
46675;SDS011;32412;51.478;5.694;2023-12-28T07:54:12;11.48;;;2.42;;
46675;SDS011;32412;51.478;5.694;2023-12-28T07:56:38;14.10;;;1.83;;
46675;SDS011;32412;51.478;5.694;2023-12-28T07:59:05;11.77;;;2.05;;
46675;SDS011;32412;51.478;5.694;2023-12-28T08:01:31;8.55;;;2.42;;
46675;SDS011;32412;51.478;5.694;2023-12-28T08:03:58;11.52;;;2.20;;
46675;SDS011;32412;51.478;5.694;2023-12-28T08:06:34;12.38;;;2.30;;
46675;SDS011;32412;51.478;5.694;2023-12-28T08:09:03;16.17;;;1.98;;
46675;SDS011;32412;51.478;5.694;2023-12-28T08:11:33;15.30;;;1.92;;
46675;SDS011;32412;51.478;5.694;2023-12-28T08:14:02;9.93;;;2.10;;
46675;SDS011;32412;51.478;5.694;2023-12-28T08:16:28;15.30;;;2.45;;
46675;SDS011;32412;51.478;5.694;2023-12-28T08:18:54;12.52;;;1.92;;
46675;SDS011;32412;51.478;5.694;2023-12-28T08:21:20;12.05;;;2.10;;
46675;SDS011;32412;51.478;5.694;2023-12-28T08:23:46;14.48;;;2.38;;
46675;SDS011;32412;51.478;5.694;2023-12-28T08:26:11;13.00;;;1.90;;
46675;SDS011;32412;51.478;5.694;2023-12-28T08:28:37;14.98;;;1.98;;
46675;SDS011;32412;51.478;5.694;2023-12-28T08:31:13;12.20;;;2.05;;
46675;SDS011;32412;51.478;5.694;2023-12-28T08:33:45;8.52;;;1.88;;
46675;SDS011;32412;51.478;5.694;2023-12-28T08:36:11;10.38;;;1.65;;
46675;SDS011;32412;51.478;5.694;2023-12-28T08:38:37;9.32;;;2.00;;
46675;SDS011;32412;51.478;5.694;2023-12-28T08:41:03;9.35;;;2.30;;
46675;SDS011;32412;51.478;5.694;2023-12-28T08:43:41;11.05;;;1.92;;
46675;SDS011;32412;51.478;5.694;2023-12-28T08:46:09;16.23;;;2.25;;
46675;SDS011;32412;51.478;5.694;2023-12-28T08:48:35;10.18;;;1.88;;
46675;SDS011;32412;51.478;5.694;2023-12-28T08:51:01;13.73;;;2.03;;
46675;SDS011;32412;51.478;5.694;2023-12-28T08:53:27;8.85;;;1.88;;
46675;SDS011;32412;51.478;5.694;2023-12-28T08:55:53;12.02;;;2.22;;
46675;SDS011;32412;51.478;5.694;2023-12-28T08:58:18;15.88;;;1.88;;
46675;SDS011;32412;51.478;5.694;2023-12-28T09:00:44;12.43;;;2.03;;
46675;SDS011;32412;51.478;5.694;2023-12-28T09:03:10;14.68;;;2.03;;
46675;SDS011;32412;51.478;5.694;2023-12-28T09:05:36;11.98;;;2.13;;
46675;SDS011;32412;51.478;5.694;2023-12-28T09:08:02;10.88;;;1.98;;
46675;SDS011;32412;51.478;5.694;2023-12-28T09:10:41;13.55;;;2.10;;
46675;SDS011;32412;51.478;5.694;2023-12-28T09:13:07;11.07;;;2.25;;
46675;SDS011;32412;51.478;5.694;2023-12-28T09:15:42;12.50;;;1.98;;
46675;SDS011;32412;51.478;5.694;2023-12-28T09:18:11;11.45;;;1.95;;
46675;SDS011;32412;51.478;5.694;2023-12-28T09:20:37;10.95;;;1.90;;
46675;SDS011;32412;51.478;5.694;2023-12-28T09:23:06;15.55;;;3.10;;
46675;SDS011;32412;51.478;5.694;2023-12-28T09:25:39;10.68;;;2.10;;
46675;SDS011;32412;51.478;5.694;2023-12-28T09:28:05;13.02;;;2.17;;
46675;SDS011;32412;51.478;5.694;2023-12-28T09:30:31;13.05;;;2.05;;
46675;SDS011;32412;51.478;5.694;2023-12-28T09:32:57;13.45;;;2.42;;
46675;SDS011;32412;51.478;5.694;2023-12-28T09:35:22;10.07;;;1.90;;
46675;SDS011;32412;51.478;5.694;2023-12-28T09:37:50;6.93;;;1.92;;
46675;SDS011;32412;51.478;5.694;2023-12-28T09:40:15;10.20;;;1.95;;
46675;SDS011;32412;51.478;5.694;2023-12-28T09:47:52;9.20;;;1.83;;
46675;SDS011;32412;51.478;5.694;2023-12-28T09:50:17;11.75;;;1.70;;
46675;SDS011;32412;51.478;5.694;2023-12-28T09:52:44;16.83;;;1.90;;
46675;SDS011;32412;51.478;5.694;2023-12-28T09:55:10;17.83;;;2.10;;
46675;SDS011;32412;51.478;5.694;2023-12-28T09:57:36;12.30;;;1.95;;
46675;SDS011;32412;51.478;5.694;2023-12-28T10:00:02;8.65;;;1.73;;
46675;SDS011;32412;51.478;5.694;2023-12-28T10:02:31;14.35;;;2.05;;
46675;SDS011;32412;51.478;5.694;2023-12-28T10:05:05;12.80;;;2.17;;
46675;SDS011;32412;51.478;5.694;2023-12-28T10:07:32;8.98;;;2.30;;
46675;SDS011;32412;51.478;5.694;2023-12-28T10:09:57;9.38;;;1.83;;
46675;SDS011;32412;51.478;5.694;2023-12-28T10:12:23;13.88;;;2.22;;
46675;SDS011;32412;51.478;5.694;2023-12-28T10:14:53;12.68;;;2.35;;
46675;SDS011;32412;51.478;5.694;2023-12-28T10:17:18;14.68;;;2.38;;
46675;SDS011;32412;51.478;5.694;2023-12-28T10:19:46;12.07;;;1.73;;
46675;SDS011;32412;51.478;5.694;2023-12-28T10:22:13;13.55;;;1.83;;
46675;SDS011;32412;51.478;5.694;2023-12-28T10:24:45;9.70;;;2.13;;
46675;SDS011;32412;51.478;5.694;2023-12-28T10:27:13;11.90;;;1.90;;
46675;SDS011;32412;51.478;5.694;2023-12-28T10:29:39;8.20;;;1.92;;
46675;SDS011;32412;51.478;5.694;2023-12-28T10:32:05;12.15;;;1.88;;
46675;SDS011;32412;51.478;5.694;2023-12-28T10:34:31;7.10;;;2.10;;
46675;SDS011;32412;51.478;5.694;2023-12-28T10:36:57;12.40;;;2.35;;
46675;SDS011;32412;51.478;5.694;2023-12-28T10:39:24;10.98;;;2.00;;
46675;SDS011;32412;51.478;5.694;2023-12-28T10:41:53;10.27;;;1.90;;
46675;SDS011;32412;51.478;5.694;2023-12-28T10:44:20;13.00;;;1.77;;
46675;SDS011;32412;51.478;5.694;2023-12-28T10:46:53;13.70;;;1.88;;
46675;SDS011;32412;51.478;5.694;2023-12-28T10:49:24;9.82;;;2.08;;
46675;SDS011;32412;51.478;5.694;2023-12-28T10:51:51;12.57;;;2.25;;
46675;SDS011;32412;51.478;5.694;2023-12-28T10:56:47;13.63;;;2.42;;
46675;SDS011;32412;51.478;5.694;2023-12-28T11:01:51;19.95;;;2.88;;
46675;SDS011;32412;51.478;5.694;2023-12-28T11:04:40;12.43;;;2.67;;
46675;SDS011;32412;51.478;5.694;2023-12-28T11:07:09;10.63;;;1.70;;
46675;SDS011;32412;51.478;5.694;2023-12-28T11:09:38;10.20;;;1.85;;
46675;SDS011;32412;51.478;5.694;2023-12-28T11:12:07;16.30;;;2.60;;
46675;SDS011;32412;51.478;5.694;2023-12-28T11:14:33;8.43;;;1.80;;
46675;SDS011;32412;51.478;5.694;2023-12-28T11:17:00;20.65;;;2.63;;
46675;SDS011;32412;51.478;5.694;2023-12-28T11:19:27;11.88;;;2.28;;
46675;SDS011;32412;51.478;5.694;2023-12-28T11:21:57;13.18;;;2.50;;
46675;SDS011;32412;51.478;5.694;2023-12-28T11:24:26;12.43;;;2.25;;
46675;SDS011;32412;51.478;5.694;2023-12-28T11:26:55;12.20;;;2.35;;
46675;SDS011;32412;51.478;5.694;2023-12-28T11:29:22;11.25;;;2.03;;
46675;SDS011;32412;51.478;5.694;2023-12-28T11:31:55;6.47;;;1.52;;
46675;SDS011;32412;51.478;5.694;2023-12-28T11:36:56;14.02;;;2.17;;
46675;SDS011;32412;51.478;5.694;2023-12-28T11:39:30;14.15;;;2.53;;
46675;SDS011;32412;51.478;5.694;2023-12-28T11:42:05;17.80;;;2.83;;
46675;SDS011;32412;51.478;5.694;2023-12-28T11:44:36;18.50;;;2.58;;
46675;SDS011;32412;51.478;5.694;2023-12-28T11:47:14;14.18;;;2.17;;
46675;SDS011;32412;51.478;5.694;2023-12-28T11:49:40;9.23;;;2.50;;
46675;SDS011;32412;51.478;5.694;2023-12-28T11:52:07;12.27;;;2.13;;
46675;SDS011;32412;51.478;5.694;2023-12-28T11:54:36;8.63;;;1.80;;
46675;SDS011;32412;51.478;5.694;2023-12-28T11:57:15;14.60;;;2.20;;
46675;SDS011;32412;51.478;5.694;2023-12-28T11:59:44;17.52;;;2.25;;
46675;SDS011;32412;51.478;5.694;2023-12-28T12:02:10;11.57;;;2.17;;
46675;SDS011;32412;51.478;5.694;2023-12-28T12:04:36;16.52;;;2.50;;
46675;SDS011;32412;51.478;5.694;2023-12-28T12:07:02;12.07;;;2.00;;
46675;SDS011;32412;51.478;5.694;2023-12-28T12:09:29;11.48;;;2.65;;
46675;SDS011;32412;51.478;5.694;2023-12-28T12:12:03;11.23;;;1.92;;
46675;SDS011;32412;51.478;5.694;2023-12-28T12:14:29;12.57;;;2.33;;
46675;SDS011;32412;51.478;5.694;2023-12-28T12:16:59;11.07;;;1.88;;
46675;SDS011;32412;51.478;5.694;2023-12-28T12:19:26;22.85;;;2.13;;
46675;SDS011;32412;51.478;5.694;2023-12-28T12:21:52;17.58;;;3.25;;
46675;SDS011;32412;51.478;5.694;2023-12-28T12:24:18;16.10;;;2.05;;
46675;SDS011;32412;51.478;5.694;2023-12-28T12:26:45;12.32;;;2.28;;
46675;SDS011;32412;51.478;5.694;2023-12-28T12:29:11;9.93;;;2.00;;
46675;SDS011;32412;51.478;5.694;2023-12-28T12:31:39;17.13;;;2.58;;
46675;SDS011;32412;51.478;5.694;2023-12-28T12:34:09;12.82;;;2.25;;
46675;SDS011;32412;51.478;5.694;2023-12-28T12:36:43;18.85;;;2.33;;
46675;SDS011;32412;51.478;5.694;2023-12-28T12:39:10;16.50;;;2.10;;
46675;SDS011;32412;51.478;5.694;2023-12-28T12:41:39;17.73;;;1.92;;
46675;SDS011;32412;51.478;5.694;2023-12-28T12:44:05;18.48;;;2.70;;
46675;SDS011;32412;51.478;5.694;2023-12-28T12:46:34;11.70;;;2.00;;
46675;SDS011;32412;51.478;5.694;2023-12-28T12:49:10;12.43;;;2.60;;
46675;SDS011;32412;51.478;5.694;2023-12-28T12:51:37;15.57;;;2.90;;
46675;SDS011;32412;51.478;5.694;2023-12-28T12:54:07;15.85;;;2.08;;
46675;SDS011;32412;51.478;5.694;2023-12-28T12:56:36;14.00;;;1.90;;
46675;SDS011;32412;51.478;5.694;2023-12-28T12:59:02;22.13;;;2.72;;
46675;SDS011;32412;51.478;5.694;2023-12-28T13:01:40;21.13;;;2.67;;
46675;SDS011;32412;51.478;5.694;2023-12-28T13:04:06;11.57;;;2.17;;
46675;SDS011;32412;51.478;5.694;2023-12-28T13:06:35;12.90;;;2.55;;
46675;SDS011;32412;51.478;5.694;2023-12-28T13:09:00;20.60;;;3.22;;
46675;SDS011;32412;51.478;5.694;2023-12-28T13:11:26;15.73;;;2.20;;
46675;SDS011;32412;51.478;5.694;2023-12-28T13:13:52;15.80;;;2.15;;
46675;SDS011;32412;51.478;5.694;2023-12-28T13:16:18;16.77;;;2.17;;
46675;SDS011;32412;51.478;5.694;2023-12-28T13:18:44;16.70;;;2.35;;
46675;SDS011;32412;51.478;5.694;2023-12-28T13:21:10;21.77;;;2.40;;
46675;SDS011;32412;51.478;5.694;2023-12-28T13:23:36;11.60;;;1.75;;
46675;SDS011;32412;51.478;5.694;2023-12-28T13:26:01;12.38;;;1.95;;
46675;SDS011;32412;51.478;5.694;2023-12-28T13:28:27;18.67;;;2.50;;
46675;SDS011;32412;51.478;5.694;2023-12-28T13:30:53;13.35;;;2.28;;
46675;SDS011;32412;51.478;5.694;2023-12-28T13:33:25;16.92;;;2.50;;
46675;SDS011;32412;51.478;5.694;2023-12-28T13:35:54;15.18;;;2.15;;
46675;SDS011;32412;51.478;5.694;2023-12-28T13:38:20;11.18;;;2.00;;
46675;SDS011;32412;51.478;5.694;2023-12-28T13:40:46;13.90;;;2.40;;
46675;SDS011;32412;51.478;5.694;2023-12-28T13:43:15;12.82;;;2.08;;
46675;SDS011;32412;51.478;5.694;2023-12-28T13:45:41;9.68;;;1.83;;
46675;SDS011;32412;51.478;5.694;2023-12-28T13:48:08;13.07;;;2.20;;
46675;SDS011;32412;51.478;5.694;2023-12-28T13:50:34;13.32;;;2.10;;
46675;SDS011;32412;51.478;5.694;2023-12-28T13:53:00;12.82;;;2.35;;
46675;SDS011;32412;51.478;5.694;2023-12-28T13:55:28;15.95;;;2.03;;
46675;SDS011;32412;51.478;5.694;2023-12-28T13:57:54;15.27;;;2.20;;
46675;SDS011;32412;51.478;5.694;2023-12-28T14:00:21;12.77;;;2.33;;
46675;SDS011;32412;51.478;5.694;2023-12-28T14:02:47;14.68;;;2.15;;
46675;SDS011;32412;51.478;5.694;2023-12-28T14:05:15;17.08;;;2.85;;
46675;SDS011;32412;51.478;5.694;2023-12-28T14:07:41;12.38;;;2.55;;
46675;SDS011;32412;51.478;5.694;2023-12-28T14:10:07;14.30;;;2.25;;
46675;SDS011;32412;51.478;5.694;2023-12-28T14:12:33;15.93;;;2.70;;
46675;SDS011;32412;51.478;5.694;2023-12-28T14:14:59;13.30;;;2.60;;
46675;SDS011;32412;51.478;5.694;2023-12-28T14:17:27;14.95;;;2.75;;
46675;SDS011;32412;51.478;5.694;2023-12-28T14:19:55;16.98;;;2.55;;
46675;SDS011;32412;51.478;5.694;2023-12-28T14:22:21;14.60;;;3.05;;
46675;SDS011;32412;51.478;5.694;2023-12-28T14:24:47;14.73;;;3.70;;
46675;SDS011;32412;51.478;5.694;2023-12-28T14:27:20;16.70;;;3.53;;
46675;SDS011;32412;51.478;5.694;2023-12-28T14:29:46;22.83;;;4.35;;
46675;SDS011;32412;51.478;5.694;2023-12-28T14:32:15;14.35;;;3.90;;
46675;SDS011;32412;51.478;5.694;2023-12-28T14:34:41;16.92;;;5.10;;
46675;SDS011;32412;51.478;5.694;2023-12-28T14:37:07;24.90;;;9.18;;
46675;SDS011;32412;51.478;5.694;2023-12-28T14:39:35;43.00;;;15.95;;
46675;SDS011;32412;51.478;5.694;2023-12-28T14:42:01;11.05;;;2.90;;
46675;SDS011;32412;51.478;5.694;2023-12-28T14:44:29;7.35;;;1.65;;
46675;SDS011;32412;51.478;5.694;2023-12-28T14:46:54;15.38;;;2.53;;
46675;SDS011;32412;51.478;5.694;2023-12-28T14:49:28;13.95;;;2.70;;
46675;SDS011;32412;51.478;5.694;2023-12-28T14:51:54;14.10;;;2.65;;
46675;SDS011;32412;51.478;5.694;2023-12-28T14:54:20;10.80;;;2.00;;
46675;SDS011;32412;51.478;5.694;2023-12-28T14:56:46;9.82;;;1.88;;
46675;SDS011;32412;51.478;5.694;2023-12-28T14:59:11;15.80;;;2.80;;